sensor_id;sensor_type;location;lat;lon;timestamp;temperature;humidity
10889;DHT22;5497;51.388;6.780;2022-07-25T00:00:24;20.00;99.90
10889;DHT22;5497;51.388;6.780;2022-07-25T00:03:05;20.10;99.90
10889;DHT22;5497;51.388;6.780;2022-07-25T00:05:38;20.00;99.90
10889;DHT22;5497;51.388;6.780;2022-07-25T00:08:23;20.10;99.90
10889;DHT22;5497;51.388;6.780;2022-07-25T00:11:00;20.10;99.90
10889;DHT22;5497;51.388;6.780;2022-07-25T00:13:31;20.10;99.90
10889;DHT22;5497;51.388;6.780;2022-07-25T00:16:12;20.20;99.90
10889;DHT22;5497;51.388;6.780;2022-07-25T00:18:50;20.20;99.90
10889;DHT22;5497;51.388;6.780;2022-07-25T00:22:01;20.20;99.90
10889;DHT22;5497;51.388;6.780;2022-07-25T00:24:29;20.20;99.90
10889;DHT22;5497;51.388;6.780;2022-07-25T00:27:05;20.20;99.90
10889;DHT22;5497;51.388;6.780;2022-07-25T00:29:38;20.30;99.90
10889;DHT22;5497;51.388;6.780;2022-07-25T00:32:19;18.90;99.90
10889;DHT22;5497;51.388;6.780;2022-07-25T00:34:54;20.30;99.90
10889;DHT22;5497;51.388;6.780;2022-07-25T00:37:22;20.30;99.90
10889;DHT22;5497;51.388;6.780;2022-07-25T00:40:02;20.40;99.90
10889;DHT22;5497;51.388;6.780;2022-07-25T00:48:13;20.40;99.90
10889;DHT22;5497;51.388;6.780;2022-07-25T00:50:54;20.40;99.90
10889;DHT22;5497;51.388;6.780;2022-07-25T00:53:37;20.40;99.90
10889;DHT22;5497;51.388;6.780;2022-07-25T00:56:08;20.40;99.90
10889;DHT22;5497;51.388;6.780;2022-07-25T00:58:40;20.30;99.90
10889;DHT22;5497;51.388;6.780;2022-07-25T01:01:25;20.30;99.90
10889;DHT22;5497;51.388;6.780;2022-07-25T01:03:59;20.30;99.90
10889;DHT22;5497;51.388;6.780;2022-07-25T01:06:33;20.20;99.90
10889;DHT22;5497;51.388;6.780;2022-07-25T01:09:25;20.10;99.90
10889;DHT22;5497;51.388;6.780;2022-07-25T01:12:05;20.00;99.90
10889;DHT22;5497;51.388;6.780;2022-07-25T01:14:56;20.00;99.90
10889;DHT22;5497;51.388;6.780;2022-07-25T01:17:36;20.00;99.90
10889;DHT22;5497;51.388;6.780;2022-07-25T01:20:29;19.90;99.90
10889;DHT22;5497;51.388;6.780;2022-07-25T01:23:13;19.80;99.90
10889;DHT22;5497;51.388;6.780;2022-07-25T01:25:54;19.80;99.90
10889;DHT22;5497;51.388;6.780;2022-07-25T01:28:31;19.70;99.90
10889;DHT22;5497;51.388;6.780;2022-07-25T01:34:08;19.60;99.90
10889;DHT22;5497;51.388;6.780;2022-07-25T01:36:42;19.60;99.90
10889;DHT22;5497;51.388;6.780;2022-07-25T01:39:09;19.50;99.90
10889;DHT22;5497;51.388;6.780;2022-07-25T01:41:48;19.50;99.90
10889;DHT22;5497;51.388;6.780;2022-07-25T01:44:51;19.40;99.90
10889;DHT22;5497;51.388;6.780;2022-07-25T01:47:32;19.40;99.90
10889;DHT22;5497;51.388;6.780;2022-07-25T01:50:01;19.40;99.90
10889;DHT22;5497;51.388;6.780;2022-07-25T01:52:32;19.30;99.90
10889;DHT22;5497;51.388;6.780;2022-07-25T01:55:19;19.30;99.90
10889;DHT22;5497;51.388;6.780;2022-07-25T01:57:48;19.30;99.90
10889;DHT22;5497;51.388;6.780;2022-07-25T02:00:35;19.20;99.90
10889;DHT22;5497;51.388;6.780;2022-07-25T02:03:10;19.20;99.90
10889;DHT22;5497;51.388;6.780;2022-07-25T02:05:57;19.20;99.90
10889;DHT22;5497;51.388;6.780;2022-07-25T02:08:33;20.30;99.90
10889;DHT22;5497;51.388;6.780;2022-07-25T02:11:21;19.10;99.90
10889;DHT22;5497;51.388;6.780;2022-07-25T02:14:03;19.00;99.90
10889;DHT22;5497;51.388;6.780;2022-07-25T02:16:39;19.00;99.90
10889;DHT22;5497;51.388;6.780;2022-07-25T02:19:16;19.00;99.90
10889;DHT22;5497;51.388;6.780;2022-07-25T02:21:49;19.00;99.90
10889;DHT22;5497;51.388;6.780;2022-07-25T02:24:23;19.00;99.90
10889;DHT22;5497;51.388;6.780;2022-07-25T02:26:53;19.00;99.90
10889;DHT22;5497;51.388;6.780;2022-07-25T02:29:23;19.00;99.90
10889;DHT22;5497;51.388;6.780;2022-07-25T02:31:56;19.00;99.90
10889;DHT22;5497;51.388;6.780;2022-07-25T02:34:31;19.00;99.90
10889;DHT22;5497;51.388;6.780;2022-07-25T02:37:00;19.00;99.90
10889;DHT22;5497;51.388;6.780;2022-07-25T02:39:43;19.00;99.90
10889;DHT22;5497;51.388;6.780;2022-07-25T02:44:50;19.00;99.90
10889;DHT22;5497;51.388;6.780;2022-07-25T02:47:18;19.10;99.90
10889;DHT22;5497;51.388;6.780;2022-07-25T02:49:44;19.00;99.90
10889;DHT22;5497;51.388;6.780;2022-07-25T02:52:11;19.00;99.90
10889;DHT22;5497;51.388;6.780;2022-07-25T02:54:38;19.00;99.90
10889;DHT22;5497;51.388;6.780;2022-07-25T02:57:04;19.00;99.90
10889;DHT22;5497;51.388;6.780;2022-07-25T02:59:31;19.00;99.90
10889;DHT22;5497;51.388;6.780;2022-07-25T03:01:58;19.00;99.90
10889;DHT22;5497;51.388;6.780;2022-07-25T03:04:26;19.00;99.90
10889;DHT22;5497;51.388;6.780;2022-07-25T03:06:53;19.00;99.90
10889;DHT22;5497;51.388;6.780;2022-07-25T03:09:19;19.00;99.90
10889;DHT22;5497;51.388;6.780;2022-07-25T03:11:46;19.00;99.90
10889;DHT22;5497;51.388;6.780;2022-07-25T03:14:14;19.00;99.90
10889;DHT22;5497;51.388;6.780;2022-07-25T03:16:41;19.00;99.90
10889;DHT22;5497;51.388;6.780;2022-07-25T03:19:08;19.00;99.90
10889;DHT22;5497;51.388;6.780;2022-07-25T03:21:37;19.00;99.90
10889;DHT22;5497;51.388;6.780;2022-07-25T03:24:04;19.00;99.90
10889;DHT22;5497;51.388;6.780;2022-07-25T03:26:31;19.00;99.90
10889;DHT22;5497;51.388;6.780;2022-07-25T03:28:58;19.10;99.90
10889;DHT22;5497;51.388;6.780;2022-07-25T03:31:24;19.30;99.90
10889;DHT22;5497;51.388;6.780;2022-07-25T03:33:51;19.20;99.90
10889;DHT22;5497;51.388;6.780;2022-07-25T03:36:18;19.20;99.90
10889;DHT22;5497;51.388;6.780;2022-07-25T03:38:46;19.20;99.90
10889;DHT22;5497;51.388;6.780;2022-07-25T03:41:12;19.30;99.90
10889;DHT22;5497;51.388;6.780;2022-07-25T03:43:39;19.30;99.90
10889;DHT22;5497;51.388;6.780;2022-07-25T03:46:06;19.40;99.90
10889;DHT22;5497;51.388;6.780;2022-07-25T03:48:32;19.40;99.90
10889;DHT22;5497;51.388;6.780;2022-07-25T03:50:59;19.40;99.90
10889;DHT22;5497;51.388;6.780;2022-07-25T03:53:26;19.40;99.90
10889;DHT22;5497;51.388;6.780;2022-07-25T03:55:54;19.50;99.90
10889;DHT22;5497;51.388;6.780;2022-07-25T03:58:20;19.50;99.90
10889;DHT22;5497;51.388;6.780;2022-07-25T04:00:47;19.60;99.90
10889;DHT22;5497;51.388;6.780;2022-07-25T04:03:14;19.60;99.90
10889;DHT22;5497;51.388;6.780;2022-07-25T04:05:41;19.80;99.90
10889;DHT22;5497;51.388;6.780;2022-07-25T04:08:07;19.80;99.90
10889;DHT22;5497;51.388;6.780;2022-07-25T04:10:34;20.00;99.90
10889;DHT22;5497;51.388;6.780;2022-07-25T04:13:03;20.10;99.90
10889;DHT22;5497;51.388;6.780;2022-07-25T04:15:30;20.20;99.90
10889;DHT22;5497;51.388;6.780;2022-07-25T04:17:56;20.30;99.90
10889;DHT22;5497;51.388;6.780;2022-07-25T04:20:23;20.40;99.90
10889;DHT22;5497;51.388;6.780;2022-07-25T04:22:50;20.50;99.90
10889;DHT22;5497;51.388;6.780;2022-07-25T04:25:16;20.60;99.90
10889;DHT22;5497;51.388;6.780;2022-07-25T04:27:43;20.80;99.90
10889;DHT22;5497;51.388;6.780;2022-07-25T04:30:11;20.90;99.90
10889;DHT22;5497;51.388;6.780;2022-07-25T04:32:39;21.00;99.90
10889;DHT22;5497;51.388;6.780;2022-07-25T04:35:07;21.10;99.90
10889;DHT22;5497;51.388;6.780;2022-07-25T04:37:34;21.20;99.90
10889;DHT22;5497;51.388;6.780;2022-07-25T04:40:02;21.30;99.90
10889;DHT22;5497;51.388;6.780;2022-07-25T04:42:29;21.40;99.90
10889;DHT22;5497;51.388;6.780;2022-07-25T04:44:56;21.50;99.90
10889;DHT22;5497;51.388;6.780;2022-07-25T04:47:24;21.60;99.90
10889;DHT22;5497;51.388;6.780;2022-07-25T04:49:51;21.70;99.90
10889;DHT22;5497;51.388;6.780;2022-07-25T04:52:18;21.70;99.90
10889;DHT22;5497;51.388;6.780;2022-07-25T04:54:45;21.80;99.90
10889;DHT22;5497;51.388;6.780;2022-07-25T04:57:12;21.80;99.90
10889;DHT22;5497;51.388;6.780;2022-07-25T04:59:38;21.90;99.90
10889;DHT22;5497;51.388;6.780;2022-07-25T05:02:05;22.00;99.90
10889;DHT22;5497;51.388;6.780;2022-07-25T05:04:33;22.10;99.90
10889;DHT22;5497;51.388;6.780;2022-07-25T05:07:00;22.10;99.90
10889;DHT22;5497;51.388;6.780;2022-07-25T05:09:27;22.20;99.90
10889;DHT22;5497;51.388;6.780;2022-07-25T05:11:54;22.30;99.90
10889;DHT22;5497;51.388;6.780;2022-07-25T05:14:21;22.30;99.90
10889;DHT22;5497;51.388;6.780;2022-07-25T05:16:48;22.50;99.90
10889;DHT22;5497;51.388;6.780;2022-07-25T05:19:15;22.60;99.90
10889;DHT22;5497;51.388;6.780;2022-07-25T05:21:43;22.70;99.90
10889;DHT22;5497;51.388;6.780;2022-07-25T05:24:10;22.90;99.90
10889;DHT22;5497;51.388;6.780;2022-07-25T05:26:37;23.00;99.90
10889;DHT22;5497;51.388;6.780;2022-07-25T05:29:03;23.10;99.90
10889;DHT22;5497;51.388;6.780;2022-07-25T05:31:30;23.10;99.90
10889;DHT22;5497;51.388;6.780;2022-07-25T05:33:57;23.20;99.90
10889;DHT22;5497;51.388;6.780;2022-07-25T05:36:24;23.40;99.90
10889;DHT22;5497;51.388;6.780;2022-07-25T05:38:52;23.40;99.90
10889;DHT22;5497;51.388;6.780;2022-07-25T05:41:18;23.50;99.90
10889;DHT22;5497;51.388;6.780;2022-07-25T05:43:45;23.60;99.90
10889;DHT22;5497;51.388;6.780;2022-07-25T05:46:13;23.60;99.90
10889;DHT22;5497;51.388;6.780;2022-07-25T05:48:40;23.80;99.90
10889;DHT22;5497;51.388;6.780;2022-07-25T05:51:06;24.90;99.90
10889;DHT22;5497;51.388;6.780;2022-07-25T05:53:33;24.10;99.90
10889;DHT22;5497;51.388;6.780;2022-07-25T05:56:01;24.50;99.90
10889;DHT22;5497;51.388;6.780;2022-07-25T05:58:28;24.60;99.90
10889;DHT22;5497;51.388;6.780;2022-07-25T06:00:55;24.60;99.90
10889;DHT22;5497;51.388;6.780;2022-07-25T06:03:25;24.60;99.90
10889;DHT22;5497;51.388;6.780;2022-07-25T06:05:53;24.70;99.90
10889;DHT22;5497;51.388;6.780;2022-07-25T06:08:20;24.70;99.90
10889;DHT22;5497;51.388;6.780;2022-07-25T06:10:46;24.70;99.90
10889;DHT22;5497;51.388;6.780;2022-07-25T06:13:14;24.70;99.90
10889;DHT22;5497;51.388;6.780;2022-07-25T06:15:41;24.60;99.90
10889;DHT22;5497;51.388;6.780;2022-07-25T06:18:08;24.60;99.90
10889;DHT22;5497;51.388;6.780;2022-07-25T06:20:34;25.30;99.90
10889;DHT22;5497;51.388;6.780;2022-07-25T06:23:01;26.50;99.90
10889;DHT22;5497;51.388;6.780;2022-07-25T06:25:29;27.50;99.90
10889;DHT22;5497;51.388;6.780;2022-07-25T06:27:56;28.50;99.90
10889;DHT22;5497;51.388;6.780;2022-07-25T06:30:24;29.50;99.90
10889;DHT22;5497;51.388;6.780;2022-07-25T06:32:50;30.40;99.90
10889;DHT22;5497;51.388;6.780;2022-07-25T06:35:17;31.70;99.90
10889;DHT22;5497;51.388;6.780;2022-07-25T06:37:44;32.90;99.90
10889;DHT22;5497;51.388;6.780;2022-07-25T06:40:11;33.80;99.90
10889;DHT22;5497;51.388;6.780;2022-07-25T06:42:39;34.90;99.90
10889;DHT22;5497;51.388;6.780;2022-07-25T06:45:06;35.80;99.90
10889;DHT22;5497;51.388;6.780;2022-07-25T06:47:35;35.60;95.70
10889;DHT22;5497;51.388;6.780;2022-07-25T06:50:03;35.00;94.30
10889;DHT22;5497;51.388;6.780;2022-07-25T06:52:30;34.10;93.20
10889;DHT22;5497;51.388;6.780;2022-07-25T06:54:57;33.60;93.40
10889;DHT22;5497;51.388;6.780;2022-07-25T06:57:23;34.00;92.20
10889;DHT22;5497;51.388;6.780;2022-07-25T06:59:50;34.00;91.90
10889;DHT22;5497;51.388;6.780;2022-07-25T07:02:17;33.80;91.20
10889;DHT22;5497;51.388;6.780;2022-07-25T07:04:45;34.40;92.10
10889;DHT22;5497;51.388;6.780;2022-07-25T07:07:12;34.40;90.70
10889;DHT22;5497;51.388;6.780;2022-07-25T07:09:38;34.80;90.30
10889;DHT22;5497;51.388;6.780;2022-07-25T07:12:06;35.30;89.70
10889;DHT22;5497;51.388;6.780;2022-07-25T07:14:33;36.20;87.10
10889;DHT22;5497;51.388;6.780;2022-07-25T07:16:59;36.20;86.50
10889;DHT22;5497;51.388;6.780;2022-07-25T07:19:26;36.50;82.90
10889;DHT22;5497;51.388;6.780;2022-07-25T07:21:54;36.40;81.90
10889;DHT22;5497;51.388;6.780;2022-07-25T07:24:21;36.40;82.60
10889;DHT22;5497;51.388;6.780;2022-07-25T07:26:47;37.00;80.90
10889;DHT22;5497;51.388;6.780;2022-07-25T07:29:14;37.60;80.20
10889;DHT22;5497;51.388;6.780;2022-07-25T07:31:41;37.70;77.70
10889;DHT22;5497;51.388;6.780;2022-07-25T07:34:07;37.50;74.50
10889;DHT22;5497;51.388;6.780;2022-07-25T07:36:35;37.30;74.90
10889;DHT22;5497;51.388;6.780;2022-07-25T07:39:03;37.20;75.30
10889;DHT22;5497;51.388;6.780;2022-07-25T07:41:30;37.40;75.20
10889;DHT22;5497;51.388;6.780;2022-07-25T07:43:57;37.80;72.80
10889;DHT22;5497;51.388;6.780;2022-07-25T07:46:24;37.80;71.60
10889;DHT22;5497;51.388;6.780;2022-07-25T07:48:51;37.70;72.40
10889;DHT22;5497;51.388;6.780;2022-07-25T07:51:19;37.40;70.60
10889;DHT22;5497;51.388;6.780;2022-07-25T07:53:45;36.80;71.30
10889;DHT22;5497;51.388;6.780;2022-07-25T07:56:31;36.00;71.30
10889;DHT22;5497;51.388;6.780;2022-07-25T07:58:58;35.50;72.60
10889;DHT22;5497;51.388;6.780;2022-07-25T08:01:25;35.00;72.90
10889;DHT22;5497;51.388;6.780;2022-07-25T08:03:52;34.50;73.60
10889;DHT22;5497;51.388;6.780;2022-07-25T08:06:18;34.20;73.90
10889;DHT22;5497;51.388;6.780;2022-07-25T08:08:45;33.90;74.30
10889;DHT22;5497;51.388;6.780;2022-07-25T08:11:12;32.10;74.10
10889;DHT22;5497;51.388;6.780;2022-07-25T08:13:40;33.50;75.70
10889;DHT22;5497;51.388;6.780;2022-07-25T08:16:07;33.70;76.00
10889;DHT22;5497;51.388;6.780;2022-07-25T08:18:36;33.90;76.60
10889;DHT22;5497;51.388;6.780;2022-07-25T08:21:03;34.20;75.20
10889;DHT22;5497;51.388;6.780;2022-07-25T08:23:30;34.20;74.60
10889;DHT22;5497;51.388;6.780;2022-07-25T08:25:59;33.70;74.80
10889;DHT22;5497;51.388;6.780;2022-07-25T08:28:25;33.60;75.60
10889;DHT22;5497;51.388;6.780;2022-07-25T08:30:53;33.20;75.10
10889;DHT22;5497;51.388;6.780;2022-07-25T08:33:20;32.90;76.10
10889;DHT22;5497;51.388;6.780;2022-07-25T08:35:48;32.50;75.30
10889;DHT22;5497;51.388;6.780;2022-07-25T08:38:16;32.40;76.00
10889;DHT22;5497;51.388;6.780;2022-07-25T08:40:43;32.00;76.30
10889;DHT22;5497;51.388;6.780;2022-07-25T08:43:10;31.70;77.00
10889;DHT22;5497;51.388;6.780;2022-07-25T08:45:37;31.20;77.00
10889;DHT22;5497;51.388;6.780;2022-07-25T08:48:09;31.10;78.60
10889;DHT22;5497;51.388;6.780;2022-07-25T08:50:36;31.00;79.50
10889;DHT22;5497;51.388;6.780;2022-07-25T08:53:04;30.80;79.80
10889;DHT22;5497;51.388;6.780;2022-07-25T08:55:30;30.70;79.10
10889;DHT22;5497;51.388;6.780;2022-07-25T08:57:57;30.50;80.50
10889;DHT22;5497;51.388;6.780;2022-07-25T09:00:25;30.40;82.30
10889;DHT22;5497;51.388;6.780;2022-07-25T09:02:53;30.70;82.80
10889;DHT22;5497;51.388;6.780;2022-07-25T09:05:21;31.80;82.80
10889;DHT22;5497;51.388;6.780;2022-07-25T09:07:48;32.20;81.70
10889;DHT22;5497;51.388;6.780;2022-07-25T09:10:16;32.90;80.20
10889;DHT22;5497;51.388;6.780;2022-07-25T09:12:49;33.60;79.20
10889;DHT22;5497;51.388;6.780;2022-07-25T09:15:21;34.00;77.30
10889;DHT22;5497;51.388;6.780;2022-07-25T09:17:48;34.20;75.90
10889;DHT22;5497;51.388;6.780;2022-07-25T09:20:15;34.30;75.00
10889;DHT22;5497;51.388;6.780;2022-07-25T09:22:44;34.20;74.90
10889;DHT22;5497;51.388;6.780;2022-07-25T09:25:20;33.90;73.00
10889;DHT22;5497;51.388;6.780;2022-07-25T09:27:47;33.90;74.20
10889;DHT22;5497;51.388;6.780;2022-07-25T09:30:14;33.50;75.30
10889;DHT22;5497;51.388;6.780;2022-07-25T09:32:41;33.30;76.00
10889;DHT22;5497;51.388;6.780;2022-07-25T09:35:08;33.30;76.90
10889;DHT22;5497;51.388;6.780;2022-07-25T09:37:35;33.50;76.90
10889;DHT22;5497;51.388;6.780;2022-07-25T09:40:10;33.70;75.50
10889;DHT22;5497;51.388;6.780;2022-07-25T09:42:36;33.80;74.90
10889;DHT22;5497;51.388;6.780;2022-07-25T09:45:04;33.70;73.00
10889;DHT22;5497;51.388;6.780;2022-07-25T09:47:33;33.60;73.60
10889;DHT22;5497;51.388;6.780;2022-07-25T09:50:00;33.10;73.80
10889;DHT22;5497;51.388;6.780;2022-07-25T09:52:27;32.60;74.70
10889;DHT22;5497;51.388;6.780;2022-07-25T09:54:53;32.30;75.80
10889;DHT22;5497;51.388;6.780;2022-07-25T09:57:22;31.90;76.60
10889;DHT22;5497;51.388;6.780;2022-07-25T09:59:50;31.50;77.20
10889;DHT22;5497;51.388;6.780;2022-07-25T10:02:22;31.10;77.50
10889;DHT22;5497;51.388;6.780;2022-07-25T10:04:55;30.50;77.30
10889;DHT22;5497;51.388;6.780;2022-07-25T10:07:25;30.50;79.10
10889;DHT22;5497;51.388;6.780;2022-07-25T10:09:53;30.10;77.60
10889;DHT22;5497;51.388;6.780;2022-07-25T10:12:22;29.80;78.50
10889;DHT22;5497;51.388;6.780;2022-07-25T10:15:02;29.40;79.30
10889;DHT22;5497;51.388;6.780;2022-07-25T10:17:29;29.40;80.10
10889;DHT22;5497;51.388;6.780;2022-07-25T10:19:56;29.20;80.10
10889;DHT22;5497;51.388;6.780;2022-07-25T10:22:34;29.20;81.10
10889;DHT22;5497;51.388;6.780;2022-07-25T10:25:06;29.40;81.00
10889;DHT22;5497;51.388;6.780;2022-07-25T10:27:38;29.50;81.90
10889;DHT22;5497;51.388;6.780;2022-07-25T10:30:09;29.50;81.40
10889;DHT22;5497;51.388;6.780;2022-07-25T10:32:36;29.80;81.20
10889;DHT22;5497;51.388;6.780;2022-07-25T10:35:10;30.00;80.20
10889;DHT22;5497;51.388;6.780;2022-07-25T10:37:37;30.00;80.00
10889;DHT22;5497;51.388;6.780;2022-07-25T10:40:05;29.90;79.20
10889;DHT22;5497;51.388;6.780;2022-07-25T10:42:32;29.80;79.60
10889;DHT22;5497;51.388;6.780;2022-07-25T10:45:01;29.80;78.80
10889;DHT22;5497;51.388;6.780;2022-07-25T10:47:33;29.80;78.90
10889;DHT22;5497;51.388;6.780;2022-07-25T10:50:02;29.90;79.90
10889;DHT22;5497;51.388;6.780;2022-07-25T10:52:29;30.00;79.20
10889;DHT22;5497;51.388;6.780;2022-07-25T10:54:56;30.00;79.50
10889;DHT22;5497;51.388;6.780;2022-07-25T10:57:23;29.90;76.90
10889;DHT22;5497;51.388;6.780;2022-07-25T10:59:50;29.90;77.00
10889;DHT22;5497;51.388;6.780;2022-07-25T11:02:18;29.80;77.20
10889;DHT22;5497;51.388;6.780;2022-07-25T11:04:45;29.50;77.50
10889;DHT22;5497;51.388;6.780;2022-07-25T11:07:27;29.50;78.20
10889;DHT22;5497;51.388;6.780;2022-07-25T11:10:02;29.40;79.30
10889;DHT22;5497;51.388;6.780;2022-07-25T11:12:29;29.40;79.70
10889;DHT22;5497;51.388;6.780;2022-07-25T11:14:59;29.50;79.80
10889;DHT22;5497;51.388;6.780;2022-07-25T11:17:27;29.50;79.60
10889;DHT22;5497;51.388;6.780;2022-07-25T11:19:54;29.60;79.90
10889;DHT22;5497;51.388;6.780;2022-07-25T11:22:21;29.60;80.10
10889;DHT22;5497;51.388;6.780;2022-07-25T11:24:48;29.70;80.10
10889;DHT22;5497;51.388;6.780;2022-07-25T11:27:19;29.80;80.70
10889;DHT22;5497;51.388;6.780;2022-07-25T11:29:46;29.90;80.50
10889;DHT22;5497;51.388;6.780;2022-07-25T11:32:13;29.90;81.10
10889;DHT22;5497;51.388;6.780;2022-07-25T11:34:41;29.80;80.30
10889;DHT22;5497;51.388;6.780;2022-07-25T11:37:10;29.80;81.00
10889;DHT22;5497;51.388;6.780;2022-07-25T11:39:39;29.80;81.60
10889;DHT22;5497;51.388;6.780;2022-07-25T11:42:06;30.20;82.10
10889;DHT22;5497;51.388;6.780;2022-07-25T11:44:34;30.30;81.40
10889;DHT22;5497;51.388;6.780;2022-07-25T11:47:01;30.30;81.90
10889;DHT22;5497;51.388;6.780;2022-07-25T11:49:29;30.70;81.40
10889;DHT22;5497;51.388;6.780;2022-07-25T11:51:57;30.90;79.90
10889;DHT22;5497;51.388;6.780;2022-07-25T11:54:24;31.00;80.40
10889;DHT22;5497;51.388;6.780;2022-07-25T11:56:51;31.10;79.40
10889;DHT22;5497;51.388;6.780;2022-07-25T11:59:17;31.20;79.10
10889;DHT22;5497;51.388;6.780;2022-07-25T12:01:44;31.30;79.60
10889;DHT22;5497;51.388;6.780;2022-07-25T12:04:12;31.40;80.10
10889;DHT22;5497;51.388;6.780;2022-07-25T12:06:39;31.60;79.00
10889;DHT22;5497;51.388;6.780;2022-07-25T12:09:11;31.60;79.90
10889;DHT22;5497;51.388;6.780;2022-07-25T12:11:38;31.50;80.00
10889;DHT22;5497;51.388;6.780;2022-07-25T12:14:05;31.50;80.50
10889;DHT22;5497;51.388;6.780;2022-07-25T12:16:32;31.40;80.30
10889;DHT22;5497;51.388;6.780;2022-07-25T12:18:59;31.30;81.20
10889;DHT22;5497;51.388;6.780;2022-07-25T12:21:26;31.10;80.80
10889;DHT22;5497;51.388;6.780;2022-07-25T12:23:52;31.10;81.80
10889;DHT22;5497;51.388;6.780;2022-07-25T12:26:20;31.30;81.90
10889;DHT22;5497;51.388;6.780;2022-07-25T12:28:47;31.30;81.70
10889;DHT22;5497;51.388;6.780;2022-07-25T12:31:14;31.20;81.10
10889;DHT22;5497;51.388;6.780;2022-07-25T12:33:41;31.10;81.00
10889;DHT22;5497;51.388;6.780;2022-07-25T12:36:10;31.00;81.50
10889;DHT22;5497;51.388;6.780;2022-07-25T12:38:37;30.80;82.10
10889;DHT22;5497;51.388;6.780;2022-07-25T12:41:03;30.70;82.70
10889;DHT22;5497;51.388;6.780;2022-07-25T12:43:32;30.50;83.40
10889;DHT22;5497;51.388;6.780;2022-07-25T12:45:58;30.40;83.60
10889;DHT22;5497;51.388;6.780;2022-07-25T12:48:25;30.40;85.10
10889;DHT22;5497;51.388;6.780;2022-07-25T12:50:52;30.30;85.40
10889;DHT22;5497;51.388;6.780;2022-07-25T12:53:18;30.20;86.40
10889;DHT22;5497;51.388;6.780;2022-07-25T12:55:45;30.30;86.10
10889;DHT22;5497;51.388;6.780;2022-07-25T12:58:12;30.30;86.90
10889;DHT22;5497;51.388;6.780;2022-07-25T13:00:40;30.30;87.20
10889;DHT22;5497;51.388;6.780;2022-07-25T13:03:07;30.20;87.60
10889;DHT22;5497;51.388;6.780;2022-07-25T13:05:34;30.30;86.30
10889;DHT22;5497;51.388;6.780;2022-07-25T13:08:02;30.30;87.10
10889;DHT22;5497;51.388;6.780;2022-07-25T13:10:29;30.30;86.50
10889;DHT22;5497;51.388;6.780;2022-07-25T13:12:55;30.30;86.70
10889;DHT22;5497;51.388;6.780;2022-07-25T13:15:22;30.10;85.90
10889;DHT22;5497;51.388;6.780;2022-07-25T13:17:53;30.00;86.10
10889;DHT22;5497;51.388;6.780;2022-07-25T13:20:20;30.20;86.10
10889;DHT22;5497;51.388;6.780;2022-07-25T13:22:47;30.20;86.70
10889;DHT22;5497;51.388;6.780;2022-07-25T13:25:13;30.40;84.60
10889;DHT22;5497;51.388;6.780;2022-07-25T13:27:40;30.40;84.00
10889;DHT22;5497;51.388;6.780;2022-07-25T13:30:07;30.40;84.60
10889;DHT22;5497;51.388;6.780;2022-07-25T13:32:34;30.40;84.50
10889;DHT22;5497;51.388;6.780;2022-07-25T13:35:03;30.40;84.60
10889;DHT22;5497;51.388;6.780;2022-07-25T13:37:30;30.30;84.40
10889;DHT22;5497;51.388;6.780;2022-07-25T13:39:57;30.20;84.80
10889;DHT22;5497;51.388;6.780;2022-07-25T13:42:24;30.30;85.40
10889;DHT22;5497;51.388;6.780;2022-07-25T13:44:50;30.20;83.40
10889;DHT22;5497;51.388;6.780;2022-07-25T13:47:17;30.20;84.10
10889;DHT22;5497;51.388;6.780;2022-07-25T13:49:44;30.10;84.70
10889;DHT22;5497;51.388;6.780;2022-07-25T13:52:12;30.00;85.30
10889;DHT22;5497;51.388;6.780;2022-07-25T13:54:39;29.80;84.30
10889;DHT22;5497;51.388;6.780;2022-07-25T13:57:05;29.90;84.90
10889;DHT22;5497;51.388;6.780;2022-07-25T13:59:33;29.70;83.70
10889;DHT22;5497;51.388;6.780;2022-07-25T14:02:00;29.60;85.20
10889;DHT22;5497;51.388;6.780;2022-07-25T14:04:27;29.60;84.90
10889;DHT22;5497;51.388;6.780;2022-07-25T14:06:54;29.50;85.10
10889;DHT22;5497;51.388;6.780;2022-07-25T14:09:22;29.30;85.00
10889;DHT22;5497;51.388;6.780;2022-07-25T14:11:49;29.10;85.60
10889;DHT22;5497;51.388;6.780;2022-07-25T14:14:16;28.90;86.00
10889;DHT22;5497;51.388;6.780;2022-07-25T14:16:42;28.60;86.00
10889;DHT22;5497;51.388;6.780;2022-07-25T14:19:10;28.50;87.30
10889;DHT22;5497;51.388;6.780;2022-07-25T14:21:36;28.30;87.80
10889;DHT22;5497;51.388;6.780;2022-07-25T14:24:07;28.10;88.70
10889;DHT22;5497;51.388;6.780;2022-07-25T14:26:35;28.00;88.90
10889;DHT22;5497;51.388;6.780;2022-07-25T14:29:02;28.10;89.90
10889;DHT22;5497;51.388;6.780;2022-07-25T14:31:30;28.40;90.00
10889;DHT22;5497;51.388;6.780;2022-07-25T14:33:57;28.70;88.20
10889;DHT22;5497;51.388;6.780;2022-07-25T14:36:24;28.70;88.00
10889;DHT22;5497;51.388;6.780;2022-07-25T14:38:51;28.60;88.80
10889;DHT22;5497;51.388;6.780;2022-07-25T14:41:17;28.40;89.30
10889;DHT22;5497;51.388;6.780;2022-07-25T14:43:45;28.40;89.90
10889;DHT22;5497;51.388;6.780;2022-07-25T14:46:12;28.50;89.20
10889;DHT22;5497;51.388;6.780;2022-07-25T14:48:41;28.50;89.90
10889;DHT22;5497;51.388;6.780;2022-07-25T14:51:08;28.50;90.10
10889;DHT22;5497;51.388;6.780;2022-07-25T14:53:35;28.40;90.20
10889;DHT22;5497;51.388;6.780;2022-07-25T14:56:03;28.20;89.60
10889;DHT22;5497;51.388;6.780;2022-07-25T14:58:30;28.20;90.60
10889;DHT22;5497;51.388;6.780;2022-07-25T15:00:58;28.00;90.90
10889;DHT22;5497;51.388;6.780;2022-07-25T15:03:24;27.90;91.10
10889;DHT22;5497;51.388;6.780;2022-07-25T15:05:51;27.60;91.40
10889;DHT22;5497;51.388;6.780;2022-07-25T15:08:18;27.50;91.80
10889;DHT22;5497;51.388;6.780;2022-07-25T15:10:45;27.40;92.10
10889;DHT22;5497;51.388;6.780;2022-07-25T15:13:11;27.30;92.20
10889;DHT22;5497;51.388;6.780;2022-07-25T15:15:38;27.20;91.80
10889;DHT22;5497;51.388;6.780;2022-07-25T15:18:06;27.20;92.30
10889;DHT22;5497;51.388;6.780;2022-07-25T15:20:33;27.10;92.60
10889;DHT22;5497;51.388;6.780;2022-07-25T15:23:00;27.20;92.50
10889;DHT22;5497;51.388;6.780;2022-07-25T15:25:27;27.20;92.00
10889;DHT22;5497;51.388;6.780;2022-07-25T15:27:53;27.20;92.90
10889;DHT22;5497;51.388;6.780;2022-07-25T15:30:20;27.30;92.60
10889;DHT22;5497;51.388;6.780;2022-07-25T15:32:47;27.40;92.50
10889;DHT22;5497;51.388;6.780;2022-07-25T15:35:15;27.50;91.40
10889;DHT22;5497;51.388;6.780;2022-07-25T15:37:41;27.40;91.80
10889;DHT22;5497;51.388;6.780;2022-07-25T15:40:08;27.40;91.90
10889;DHT22;5497;51.388;6.780;2022-07-25T15:42:36;27.20;91.80
10889;DHT22;5497;51.388;6.780;2022-07-25T15:45:03;27.00;91.10
10889;DHT22;5497;51.388;6.780;2022-07-25T15:47:31;26.90;91.40
10889;DHT22;5497;51.388;6.780;2022-07-25T15:49:58;26.80;91.30
10889;DHT22;5497;51.388;6.780;2022-07-25T15:52:26;26.70;91.30
10889;DHT22;5497;51.388;6.780;2022-07-25T15:54:53;26.70;90.90
10889;DHT22;5497;51.388;6.780;2022-07-25T15:57:19;26.60;91.30
10889;DHT22;5497;51.388;6.780;2022-07-25T15:59:46;26.60;91.30
10889;DHT22;5497;51.388;6.780;2022-07-25T16:02:13;26.60;91.30
10889;DHT22;5497;51.388;6.780;2022-07-25T16:04:40;26.70;90.90
10889;DHT22;5497;51.388;6.780;2022-07-25T16:07:07;26.70;91.20